createdAt,value
2023-03-15T00:00:35.748Z,1.3
2023-03-15T00:05:22.394Z,1.3
2023-03-15T00:10:28.190Z,1.3
2023-03-15T00:15:17.449Z,1.2
2023-03-15T00:20:24.393Z,1.3
2023-03-15T00:25:28.605Z,1.3
2023-03-15T00:30:17.950Z,1.3
2023-03-15T00:35:24.439Z,1.3
2023-03-15T00:40:29.851Z,1.3
2023-03-15T00:45:19.019Z,1.3
2023-03-15T00:50:25.118Z,1.3
2023-03-15T00:55:30.938Z,1.2
2023-03-15T01:00:24.259Z,1.2
2023-03-15T01:05:25.544Z,1.2
2023-03-15T01:10:32.145Z,1.1
2023-03-15T01:15:20.424Z,1.1
2023-03-15T01:20:26.795Z,1.1
2023-03-15T01:25:33.191Z,1.1
2023-03-15T01:30:22.225Z,1.2
2023-03-15T01:35:28.025Z,1.2
2023-03-15T01:40:17.672Z,1.2
2023-03-15T01:45:23.490Z,1.1
2023-03-15T01:50:29.395Z,1.1
2023-03-15T01:55:18.287Z,1.1
2023-03-15T02:00:28.814Z,1.0
2023-03-15T02:05:30.158Z,0.9
2023-03-15T02:10:18.871Z,0.8
2023-03-15T02:15:25.320Z,0.7
2023-03-15T02:20:31.129Z,0.7
2023-03-15T02:25:20.104Z,0.8
2023-03-15T02:30:26.398Z,0.7
2023-03-15T02:35:32.609Z,0.8
2023-03-15T02:40:23.202Z,0.8
2023-03-15T02:45:27.350Z,0.8
2023-03-15T02:50:33.407Z,0.8
2023-03-15T02:55:22.638Z,0.8
2023-03-15T03:00:31.102Z,0.7
2023-03-15T03:05:17.100Z,0.6
2023-03-15T03:10:23.190Z,0.6
2023-03-15T03:15:28.916Z,0.6
2023-03-15T03:20:18.334Z,0.5
2023-03-15T03:25:24.482Z,0.5
2023-03-15T03:30:30.229Z,0.4
2023-03-15T03:35:19.555Z,0.4
2023-03-15T03:40:25.735Z,0.4
2023-03-15T03:45:31.473Z,0.4
2023-03-15T03:50:20.714Z,0.4
2023-03-15T03:55:26.871Z,0.5
2023-03-15T04:00:35.089Z,0.5
2023-03-15T04:05:21.069Z,0.5
2023-03-15T04:10:27.050Z,0.4
2023-03-15T04:15:33.344Z,0.5
2023-03-15T04:20:22.209Z,0.5
2023-03-15T04:25:29.492Z,0.5
2023-03-15T04:30:16.871Z,0.5
2023-03-15T04:35:22.997Z,0.4
2023-03-15T04:40:29.091Z,0.4
2023-03-15T04:45:17.799Z,0.3
2023-03-15T04:50:24.172Z,0.3
2023-03-15T04:55:30.251Z,0.2
2023-03-15T05:00:23.807Z,0.2
2023-03-15T05:05:25.034Z,0.1
2023-03-15T05:10:31.522Z,0.1
2023-03-15T05:15:19.537Z,0.1
2023-03-15T05:20:26.749Z,0.0
2023-03-15T05:25:32.605Z,-0.0
2023-03-15T05:30:21.439Z,-0.1
2023-03-15T05:35:27.299Z,-0.1
2023-03-15T05:40:33.465Z,-0.1
2023-03-15T05:45:22.875Z,-0.1
2023-03-15T05:50:28.866Z,-0.2
2023-03-15T05:55:17.474Z,-0.2
2023-03-15T06:00:26.954Z,-0.3
2023-03-15T06:05:29.358Z,-0.2
2023-03-15T06:10:17.937Z,-0.1
2023-03-15T06:15:24.297Z,0.1
2023-03-15T06:20:30.355Z,0.1
2023-03-15T06:25:18.465Z,0.2
2023-03-15T06:30:24.494Z,0.3
2023-03-15T06:35:30.637Z,0.3
2023-03-15T06:40:20.990Z,0.5
2023-03-15T06:45:25.717Z,0.7
2023-03-15T06:50:46.002Z,0.8
2023-03-15T06:55:20.849Z,0.9
2023-03-15T07:00:29.430Z,1.0
2023-03-15T07:05:33.277Z,0.8
2023-03-15T07:10:22.314Z,0.7
2023-03-15T07:15:28.566Z,0.7
2023-03-15T07:20:17.524Z,0.6
2023-03-15T07:25:23.365Z,1.0
2023-03-15T07:30:29.459Z,1.5
2023-03-15T07:35:18.357Z,2.0
2023-03-15T07:40:24.655Z,2.2
2023-03-15T07:45:30.415Z,1.8
2023-03-15T07:50:19.302Z,1.5
2023-03-15T07:55:25.690Z,1.7
2023-03-15T08:00:34.288Z,1.7
2023-03-15T08:05:20.895Z,1.8
2023-03-15T08:10:25.775Z,2.0
2023-03-15T08:15:32.215Z,1.8
2023-03-15T08:20:22.505Z,1.9
2023-03-15T08:25:26.846Z,2.0
2023-03-15T08:30:32.612Z,2.0
2023-03-15T08:35:21.714Z,2.3
2023-03-15T08:40:27.913Z,2.2
2023-03-15T08:45:17.773Z,1.9
2023-03-15T08:50:23.076Z,1.9
2023-03-15T08:55:28.963Z,1.8
2023-03-15T09:00:21.205Z,1.9
2023-03-15T09:05:23.401Z,1.8
2023-03-15T09:10:29.594Z,1.9
2023-03-15T09:15:18.409Z,2.0
2023-03-15T09:20:27.316Z,2.1
2023-03-15T09:25:31.424Z,2.0
2023-03-15T09:30:20.463Z,1.9
2023-03-15T09:35:26.322Z,2.2
2023-03-15T09:40:32.813Z,2.5
2023-03-15T09:45:21.351Z,2.9
2023-03-15T09:50:27.683Z,3.2
2023-03-15T09:55:33.832Z,3.0
2023-03-15T10:00:23.878Z,3.1
2023-03-15T10:05:28.363Z,3.1
2023-03-15T10:10:17.277Z,2.9
2023-03-15T10:15:23.445Z,2.6
2023-03-15T10:20:29.240Z,3.1
2023-03-15T10:25:17.963Z,3.8
2023-03-15T10:30:25.806Z,4.2
2023-03-15T10:35:29.995Z,3.9
2023-03-15T10:40:20.795Z,3.5
2023-03-15T10:45:24.900Z,3.2
2023-03-15T10:50:31.174Z,3.0
2023-03-15T10:55:19.943Z,3.2
2023-03-15T11:00:29.701Z,3.4
2023-03-15T11:05:32.458Z,3.7
2023-03-15T11:10:21.998Z,3.4
2023-03-15T11:15:28.230Z,3.8
2023-03-15T11:20:36.519Z,4.0
2023-03-15T11:25:24.837Z,3.6
2023-03-15T11:30:28.113Z,3.1
2023-03-15T11:35:17.452Z,2.6
2023-03-15T11:40:23.449Z,2.3
2023-03-15T11:45:29.553Z,1.9
2023-03-15T11:50:18.192Z,1.9
2023-03-15T11:55:24.569Z,1.5
2023-03-15T12:00:34.392Z,1.5
2023-03-15T12:05:19.276Z,1.9
2023-03-15T12:10:24.770Z,1.9
2023-03-15T12:15:31.156Z,2.0
2023-03-15T12:20:20.078Z,1.8
2023-03-15T12:25:26.447Z,1.9
2023-03-15T12:30:32.370Z,2.0
2023-03-15T12:35:21.502Z,2.0
2023-03-15T12:40:27.430Z,2.0
2023-03-15T12:45:35.222Z,2.0
2023-03-15T12:50:22.397Z,2.2
2023-03-15T12:55:28.795Z,2.4
2023-03-15T13:00:21.476Z,2.2
2023-03-15T13:05:23.159Z,2.2
2023-03-15T13:10:31.203Z,2.1
2023-03-15T13:15:18.269Z,2.0
2023-03-15T13:20:25.085Z,2.2
2023-03-15T13:25:29.652Z,2.2
2023-03-15T13:30:18.446Z,2.4
2023-03-15T13:35:24.899Z,2.4
2023-03-15T13:40:30.839Z,2.5
2023-03-15T13:45:19.641Z,2.5
2023-03-15T13:50:25.936Z,2.5
2023-03-15T13:55:31.827Z,2.5
2023-03-15T14:00:39.919Z,2.3
2023-03-15T14:05:27.623Z,2.4
2023-03-15T14:10:33.537Z,2.5
2023-03-15T14:15:22.223Z,2.5
2023-03-15T14:20:28.612Z,2.6
2023-03-15T14:25:16.900Z,2.6
2023-03-15T14:30:22.993Z,2.6
2023-03-15T14:35:29.357Z,2.6
2023-03-15T14:40:20.399Z,2.7
2023-03-15T14:45:24.475Z,2.6
2023-03-15T14:50:30.374Z,2.6
2023-03-15T14:55:19.958Z,2.7
2023-03-15T15:00:27.755Z,2.9
2023-03-15T15:05:30.806Z,2.8
2023-03-15T15:10:19.595Z,2.8
2023-03-15T15:15:25.746Z,2.8
2023-03-15T15:20:31.808Z,2.8
2023-03-15T15:25:20.753Z,2.7
2023-03-15T15:30:26.738Z,2.6
2023-03-15T15:35:32.957Z,2.6
2023-03-15T15:40:23.161Z,2.6
2023-03-15T15:45:28.044Z,2.0
2023-03-15T15:50:16.757Z,1.4
2023-03-15T15:55:23.318Z,1.6
2023-03-15T16:00:29.932Z,2.1
2023-03-15T16:05:17.819Z,2.3
2023-03-15T16:10:23.650Z,2.4
2023-03-15T16:15:29.954Z,2.0
2023-03-15T16:20:19.127Z,1.9
2023-03-15T16:25:25.418Z,1.8
2023-03-15T16:30:33.336Z,2.0
2023-03-15T16:35:20.161Z,2.2
2023-03-15T16:40:26.694Z,2.2
2023-03-15T16:45:32.771Z,2.2
2023-03-15T16:50:21.299Z,1.9
2023-03-15T16:55:27.824Z,1.7
2023-03-15T17:00:35.692Z,1.7
2023-03-15T17:05:22.030Z,1.7
2023-03-15T17:10:27.908Z,1.8
2023-03-15T17:15:17.138Z,1.4
2023-03-15T17:20:24.257Z,1.1
2023-03-15T17:25:28.640Z,0.9
2023-03-15T17:30:18.059Z,0.7
2023-03-15T17:35:23.670Z,0.6
2023-03-15T17:40:30.152Z,0.6
2023-03-15T17:45:18.832Z,0.6
2023-03-15T17:50:24.876Z,0.6
2023-03-15T17:55:31.185Z,0.5
2023-03-15T18:00:23.618Z,0.5
2023-03-15T18:05:25.581Z,0.4
2023-03-15T18:10:31.497Z,0.4
2023-03-15T18:15:20.746Z,0.4
2023-03-15T18:20:27.348Z,0.4
2023-03-15T18:25:33.087Z,0.3
2023-03-15T18:30:22.026Z,0.1
2023-03-15T18:35:28.147Z,0.1
2023-03-15T18:40:17.234Z,0.0
2023-03-15T18:45:23.579Z,-0.1
2023-03-15T18:50:29.359Z,-0.2
2023-03-15T18:55:18.391Z,-0.4
2023-03-15T19:00:27.601Z,-0.5
2023-03-15T19:05:29.770Z,-0.5
2023-03-15T19:10:19.103Z,-0.7
2023-03-15T19:15:25.121Z,-0.8
2023-03-15T19:20:30.944Z,-1.0
2023-03-15T19:25:19.711Z,-0.9
2023-03-15T19:30:25.491Z,-0.9
2023-03-15T19:35:33.560Z,-1.0
2023-03-15T19:40:21.060Z,-1.0
2023-03-15T19:45:26.649Z,-1.1
2023-03-15T19:50:33.005Z,-1.2
2023-03-15T19:55:21.812Z,-1.3
2023-03-15T20:00:28.711Z,-1.2
2023-03-15T20:05:18.246Z,-1.3
2023-03-15T20:10:24.336Z,-1.4
2023-03-15T20:15:29.736Z,-1.5
2023-03-15T20:20:20.012Z,-1.6
2023-03-15T20:25:24.138Z,-1.6
2023-03-15T20:30:30.505Z,-1.6
2023-03-15T20:35:19.268Z,-1.8
2023-03-15T20:40:26.077Z,-1.7
2023-03-15T20:45:31.705Z,-1.8
2023-03-15T20:50:20.900Z,-1.8
2023-03-15T20:55:26.774Z,-1.9
2023-03-15T21:00:32.980Z,-2.0
2023-03-15T21:05:21.160Z,-2.1
2023-03-15T21:10:26.951Z,-2.2
2023-03-15T21:15:33.262Z,-2.2
2023-03-15T21:20:23.798Z,-2.2
2023-03-15T21:25:27.833Z,-2.3
2023-03-15T21:30:16.586Z,-2.3
2023-03-15T21:35:23.046Z,-2.3
2023-03-15T21:40:29.037Z,-2.2
2023-03-15T21:45:17.827Z,-2.3
2023-03-15T21:50:24.225Z,-2.2
2023-03-15T21:55:30.326Z,-2.3
2023-03-15T22:00:20.690Z,-2.2
2023-03-15T22:05:24.689Z,-2.2
2023-03-15T22:10:30.636Z,-2.3
2023-03-15T22:15:19.631Z,-2.3
2023-03-15T22:20:27.281Z,-2.4
2023-03-15T22:25:32.336Z,-2.5
2023-03-15T22:30:21.290Z,-2.7
2023-03-15T22:35:28.998Z,-2.7
2023-03-15T22:40:33.506Z,-2.5
2023-03-15T22:45:22.182Z,-2.6
2023-03-15T22:50:28.853Z,-2.5
2023-03-15T22:55:17.544Z,-2.4
2023-03-15T23:00:28.235Z,-2.3
2023-03-15T23:05:28.948Z,-2.2
2023-03-15T23:10:18.391Z,-2.1
2023-03-15T23:15:24.152Z,-2.0
2023-03-15T23:20:32.642Z,-1.9
2023-03-15T23:25:18.463Z,-1.9
2023-03-15T23:30:25.408Z,-1.8
2023-03-15T23:35:30.919Z,-1.8
2023-03-15T23:40:19.830Z,-1.8
2023-03-15T23:45:25.961Z,-1.8
2023-03-15T23:50:32.165Z,-1.9
2023-03-15T23:55:20.836Z,-1.9
